Time;durP1;ratioP1;P1;durP2;ratioP2;P2;SDS_P1;SDS_P2;PMS_P1;PMS_P2;Temp;Humidity;BMP_temperature;BMP_pressure;BME280_temperature;BME280_humidity;BME280_pressure;Samples;Min_cycle;Max_cycle;Signal;HPM_P1;HPM_P2
2023/09/24 00:00:14;;;;;;;9.30;6.00;;;;;;;23.17;66.41;97996.81;105200;1259;60553;-32
2023/09/24 00:02:42;;;;;;;9.50;5.90;;;;;;;23.17;66.36;97998.05;105282;1260;72912;-31
2023/09/24 00:05:12;;;;;;;10.40;5.70;;;;;;;23.15;66.45;97990.31;105150;1262;65584;-31
2023/09/24 00:07:40;;;;;;;10.00;6.80;;;;;;;23.16;66.21;97989.45;105269;1260;72717;-31
2023/09/24 00:10:08;;;;;;;7.70;5.80;;;;;;;23.15;66.33;97998.34;105376;1262;60457;-31
2023/09/24 00:12:37;;;;;;;6.90;5.90;;;;;;;23.15;66.36;97999.13;105188;1262;60372;-31
2023/09/24 00:15:07;;;;;;;9.30;6.20;;;;;;;23.15;66.30;98001.94;105300;1257;73844;-33
2023/09/24 00:17:34;;;;;;;11.20;6.60;;;;;;;23.14;66.24;97998.27;105219;1260;64956;-31
2023/09/24 00:20:01;;;;;;;9.70;5.70;;;;;;;23.14;66.30;97998.97;108973;1257;72477;-32
2023/09/24 00:22:29;;;;;;;8.70;6.10;;;;;;;23.14;66.37;98005.29;108979;1257;58862;-32
2023/09/24 00:24:58;;;;;;;9.00;5.80;;;;;;;23.14;66.49;98009.19;108933;1257;60095;-32
2023/09/24 00:27:25;;;;;;;8.60;5.80;;;;;;;23.14;66.57;98012.63;106984;1258;73833;-32
2023/09/24 00:29:52;;;;;;;13.30;6.20;;;;;;;23.15;66.52;98010.45;105120;1262;65489;-31
2023/09/24 00:32:20;;;;;;;12.70;6.10;;;;;;;23.15;66.62;98013.89;105188;1260;72608;-31
2023/09/24 00:34:47;;;;;;;11.20;6.40;;;;;;;23.15;66.64;98015.20;105090;1262;60607;-31
2023/09/24 00:37:14;;;;;;;7.80;6.00;;;;;;;23.15;66.61;98016.77;105203;1260;60529;-31
2023/09/24 00:39:41;;;;;;;9.60;6.40;;;;;;;23.16;66.58;98011.77;105288;1260;73559;-31
2023/09/24 00:42:09;;;;;;;10.60;6.70;;;;;;;23.15;66.54;98011.47;105165;1262;66338;-31
2023/09/24 00:44:37;;;;;;;10.10;5.90;;;;;;;23.15;66.51;98005.61;105152;1260;72603;-31
2023/09/24 00:47:05;;;;;;;8.90;6.10;;;;;;;23.14;66.49;98006.23;105237;1262;60563;-31
2023/09/24 00:49:32;;;;;;;7.80;5.70;;;;;;;23.14;66.66;98002.79;105227;1260;60815;-31
2023/09/24 00:52:00;;;;;;;8.70;5.90;;;;;;;23.14;66.83;98004.58;105087;1265;73793;-31
2023/09/24 00:54:28;;;;;;;10.90;5.80;;;;;;;23.13;66.89;97997.86;105120;1261;66290;-31
2023/09/24 00:56:59;;;;;;;9.10;6.20;;;;;;;23.13;66.91;97997.15;105005;1260;72616;-31
2023/09/24 00:59:28;;;;;;;8.60;5.70;;;;;;;23.13;66.88;97996.52;105181;1262;60450;-31
2023/09/24 01:01:57;;;;;;;8.30;5.50;;;;;;;23.13;66.81;97990.91;105370;1258;60483;-31
2023/09/24 01:04:24;;;;;;;9.70;6.20;;;;;;;23.12;66.67;97989.03;105312;1260;73616;-31
2023/09/24 01:06:53;;;;;;;11.00;6.50;;;;;;;23.12;66.75;97988.80;105212;1262;65546;-31
2023/09/24 01:09:21;;;;;;;8.70;6.20;;;;;;;23.12;66.65;97991.21;105374;1260;72327;-31
2023/09/24 01:11:52;;;;;;;9.60;6.30;;;;;;;23.12;66.78;97995.19;105350;1260;60572;-32
2023/09/24 01:14:20;;;;;;;10.30;6.50;;;;;;;23.11;66.61;98000.86;105278;1260;60443;-31
2023/09/24 01:16:48;;;;;;;7.30;5.20;;;;;;;23.11;66.64;97999.77;105095;1265;73811;-31
2023/09/24 01:19:16;;;;;;;9.00;6.40;;;;;;;23.10;66.64;98009.05;105213;1264;65574;-31
2023/09/24 01:21:43;;;;;;;11.10;6.10;;;;;;;23.10;66.66;98014.51;105192;1258;72806;-31
2023/09/24 01:24:11;;;;;;;7.80;5.70;;;;;;;23.10;66.70;98021.63;105149;1265;60439;-32
2023/09/24 01:26:38;;;;;;;7.70;5.90;;;;;;;23.10;66.77;98022.87;105254;1258;60405;-31
2023/09/24 01:29:07;;;;;;;9.70;6.20;;;;;;;23.09;66.63;98020.06;105395;1259;73651;-31
2023/09/24 01:31:38;;;;;;;8.00;6.20;;;;;;;23.09;66.82;98022.63;105191;1261;66036;-31
2023/09/24 01:34:05;;;;;;;7.00;5.60;;;;;;;23.08;66.78;98024.25;105253;1260;72467;-31
2023/09/24 01:36:33;;;;;;;8.60;5.60;;;;;;;23.08;66.84;98027.54;105213;1262;60649;-33
2023/09/24 01:39:01;;;;;;;9.70;6.30;;;;;;;23.08;66.54;98030.27;105270;1260;60555;-31
2023/09/24 01:41:31;;;;;;;8.20;5.80;;;;;;;23.07;66.70;98033.23;105173;1260;73509;-31
2023/09/24 01:43:59;;;;;;;9.10;6.00;;;;;;;23.07;66.60;98031.73;105220;1264;66447;-33
2023/09/24 01:46:27;;;;;;;7.40;5.70;;;;;;;23.06;66.58;98032.90;105356;1261;72730;-31
2023/09/24 01:48:55;;;;;;;8.10;6.10;;;;;;;23.06;66.47;98040.29;105114;1262;60560;-31
2023/09/24 01:51:23;;;;;;;10.60;6.10;;;;;;;23.06;66.90;98044.52;105147;1257;60311;-31
2023/09/24 01:53:51;;;;;;;8.40;5.90;;;;;;;23.05;66.68;98057.55;105312;1258;73820;-31
2023/09/24 01:56:21;;;;;;;8.10;5.90;;;;;;;23.06;66.81;98072.23;105331;1262;66128;-31
2023/09/24 01:58:51;;;;;;;8.90;6.10;;;;;;;23.05;66.71;98079.23;105221;1264;71092;-30
2023/09/24 02:01:18;;;;;;;12.10;5.90;;;;;;;23.05;66.58;98084.70;105217;1263;60539;-31
2023/09/24 02:03:46;;;;;;;11.90;5.90;;;;;;;23.04;66.56;98100.08;105182;1258;60647;-31
2023/09/24 02:06:17;;;;;;;11.30;6.30;;;;;;;23.04;66.58;98115.83;105476;1262;73645;-31
2023/09/24 02:08:45;;;;;;;8.40;6.30;;;;;;;23.04;66.68;98118.17;105269;1262;65592;-31
2023/09/24 02:11:13;;;;;;;8.10;6.00;;;;;;;23.04;66.44;98123.22;105090;1262;72626;-31
2023/09/24 02:13:41;;;;;;;9.00;6.00;;;;;;;23.03;66.60;98130.71;105191;1262;60495;-32
2023/09/24 02:16:09;;;;;;;10.70;6.30;;;;;;;23.03;66.68;98140.30;105187;1260;60459;-32
2023/09/24 02:18:36;;;;;;;8.60;6.30;;;;;;;23.03;66.78;98146.55;105228;1260;73862;-32
2023/09/24 02:21:18;;;;;;;15.70;6.70;;;;;;;23.02;67.08;98141.31;105075;1264;66001;-32
2023/09/24 02:23:45;;;;;;;10.80;6.80;;;;;;;23.01;67.20;98143.72;105141;1260;72640;-31
2023/09/24 02:26:14;;;;;;;12.50;6.90;;;;;;;23.00;67.62;98144.11;105254;1260;60362;-31
2023/09/24 02:28:42;;;;;;;10.50;6.60;;;;;;;23.00;67.83;98145.75;105165;1260;60540;-31
2023/09/24 02:31:11;;;;;;;11.80;5.90;;;;;;;22.99;68.11;98153.27;105343;1262;73521;-31
2023/09/24 02:33:39;;;;;;;11.90;6.10;;;;;;;22.98;68.22;98152.27;105262;1261;65226;-31
2023/09/24 02:36:08;;;;;;;8.00;6.10;;;;;;;22.97;68.67;98145.84;105397;1259;72816;-31
2023/09/24 02:38:35;;;;;;;10.00;6.40;;;;;;;22.96;68.96;98140.99;105314;1262;60555;-31
2023/09/24 02:41:04;;;;;;;9.50;5.60;;;;;;;22.96;68.98;98130.36;105217;1260;60617;-31
2023/09/24 02:43:32;;;;;;;6.70;5.00;;;;;;;22.96;69.09;98121.01;105343;1262;74660;-31
2023/09/24 02:46:00;;;;;;;9.40;5.10;;;;;;;22.97;68.94;98116.59;105389;1262;66267;-31
2023/09/24 02:48:27;;;;;;;7.40;4.90;;;;;;;22.99;68.98;98120.98;105259;1262;72629;-31
2023/09/24 02:50:56;;;;;;;9.50;5.60;;;;;;;23.00;69.06;98121.07;105366;1262;60547;-31
2023/09/24 02:53:23;;;;;;;8.40;5.70;;;;;;;23.02;69.09;98119.23;105495;1260;60397;-31
2023/09/24 02:55:51;;;;;;;8.70;5.60;;;;;;;23.04;68.89;98117.62;105293;1257;73960;-30
2023/09/24 02:58:19;;;;;;;8.40;5.10;;;;;;;23.05;68.62;98110.02;105442;1265;65466;-32
2023/09/24 03:00:46;;;;;;;7.60;5.50;;;;;;;23.07;68.66;98110.55;105260;1260;60559;-32
2023/09/24 03:03:15;;;;;;;8.90;5.80;;;;;;;23.08;68.62;98104.71;105174;1262;60513;-32
2023/09/24 03:05:43;;;;;;;6.70;5.00;;;;;;;23.08;68.52;98099.89;105425;1262;60460;-32
2023/09/24 03:08:15;;;;;;;8.60;4.90;;;;;;;23.08;68.72;98093.09;105662;1259;73218;-32
2023/09/24 03:10:43;;;;;;;7.30;5.20;;;;;;;23.09;68.42;98091.38;105244;1260;66107;-32
2023/09/24 03:13:11;;;;;;;9.60;4.50;;;;;;;23.08;68.41;98093.48;105171;1258;73894;-32
2023/09/24 03:15:38;;;;;;;7.50;4.90;;;;;;;23.08;68.45;98093.25;105346;1261;60548;-32
2023/09/24 03:18:06;;;;;;;8.10;5.30;;;;;;;23.08;68.36;98090.13;105113;1259;60626;-32
2023/09/24 03:20:34;;;;;;;6.30;5.10;;;;;;;23.07;68.10;98092.38;105372;1260;73847;-32
2023/09/24 03:23:08;;;;;;;10.40;4.90;;;;;;;23.07;68.32;98098.06;105449;1260;66195;-32
2023/09/24 03:25:35;;;;;;;8.40;4.90;;;;;;;23.07;68.07;98105.88;105461;1262;72456;-32
2023/09/24 03:28:03;;;;;;;6.00;4.90;;;;;;;23.06;68.25;98107.27;105299;1262;60767;-32
2023/09/24 03:30:31;;;;;;;6.40;4.50;;;;;;;23.06;68.00;98100.94;105202;1259;60529;-32
2023/09/24 03:32:58;;;;;;;5.50;4.50;;;;;;;23.05;68.17;98095.80;105131;1260;73811;-32
2023/09/24 03:35:27;;;;;;;6.70;4.80;;;;;;;23.05;68.03;98098.36;105226;1265;66286;-31
2023/09/24 03:37:55;;;;;;;8.40;4.80;;;;;;;23.04;68.18;98097.79;105226;1260;72633;-31
2023/09/24 03:40:24;;;;;;;6.70;4.70;;;;;;;23.04;68.18;98092.40;105151;1260;60550;-31
2023/09/24 03:42:51;;;;;;;5.40;4.30;;;;;;;23.04;67.99;98089.67;105119;1262;60376;-31
2023/09/24 03:45:20;;;;;;;5.40;4.30;;;;;;;23.03;67.97;98090.67;105261;1262;74267;-31
2023/09/24 03:47:48;;;;;;;7.20;4.40;;;;;;;23.03;68.00;98090.12;105380;1262;66010;-31
2023/09/24 03:50:19;;;;;;;5.00;4.10;;;;;;;23.02;67.95;98088.56;105274;1260;72676;-31
2023/09/24 03:52:48;;;;;;;7.70;4.40;;;;;;;23.02;67.90;98089.49;105358;1262;60556;-31
2023/09/24 03:55:16;;;;;;;5.30;3.80;;;;;;;23.02;68.03;98098.39;105281;1260;60448;-31
2023/09/24 03:57:44;;;;;;;5.10;3.90;;;;;;;23.01;67.82;98101.58;105276;1262;74106;-31
2023/09/24 04:00:18;;;;;;;5.80;4.00;;;;;;;23.00;68.03;98091.81;105375;1262;65516;-31
2023/09/24 04:02:50;;;;;;;4.90;3.90;;;;;;;23.00;68.05;98088.30;105312;1260;71603;-32
2023/09/24 04:05:21;;;;;;;4.70;3.80;;;;;;;23.00;67.77;98091.82;105260;1269;61286;-32
2023/09/24 04:07:52;;;;;;;6.60;3.70;;;;;;;23.00;67.78;98093.05;105218;1262;61257;-33
2023/09/24 04:10:21;;;;;;;4.60;3.60;;;;;;;22.99;67.89;98098.82;105157;1258;73390;-32
2023/09/24 04:12:52;;;;;;;5.20;3.80;;;;;;;22.99;67.98;98102.09;105343;1262;66147;-32
2023/09/24 04:15:21;;;;;;;4.80;3.60;;;;;;;22.99;67.85;98109.59;105181;1260;71203;-33
2023/09/24 04:17:50;;;;;;;4.90;3.60;;;;;;;22.99;67.71;98110.19;105393;1258;61368;-33
2023/09/24 04:20:20;;;;;;;4.80;4.00;;;;;;;22.98;67.81;98112.16;105219;1259;61242;-32
2023/09/24 04:22:48;;;;;;;6.50;3.70;;;;;;;22.98;67.74;98117.30;105387;1260;74513;-32
2023/09/24 04:25:17;;;;;;;4.40;3.20;;;;;;;22.98;67.82;98131.27;105528;1259;66408;-31
2023/09/24 04:27:45;;;;;;;4.80;3.30;;;;;;;22.98;67.84;98135.27;105290;1260;72760;-31
2023/09/24 04:30:16;;;;;;;7.20;3.40;;;;;;;22.98;67.81;98135.17;105140;1262;61165;-31
2023/09/24 04:32:48;;;;;;;4.20;3.10;;;;;;;22.97;67.82;98142.02;105142;1260;61259;-31
2023/09/24 04:35:19;;;;;;;5.40;3.90;;;;;;;22.97;67.73;98147.88;105116;1260;72811;-31
2023/09/24 04:37:47;;;;;;;4.30;3.40;;;;;;;22.97;67.76;98152.25;105207;1262;66264;-33
2023/09/24 04:40:14;;;;;;;4.50;3.30;;;;;;;22.97;67.61;98160.13;105261;1260;72533;-33
2023/09/24 04:42:45;;;;;;;3.90;3.30;;;;;;;22.97;67.82;98160.60;105246;1262;61350;-31
2023/09/24 04:45:14;;;;;;;4.80;3.30;;;;;;;22.98;67.80;98170.67;105468;1259;61769;-31
2023/09/24 04:47:42;;;;;;;4.30;3.10;;;;;;;22.98;67.81;98179.80;105271;1262;74330;-31
2023/09/24 04:50:11;;;;;;;4.10;3.20;;;;;;;22.98;67.70;98194.02;105251;1262;66243;-31
2023/09/24 04:52:41;;;;;;;3.90;3.10;;;;;;;22.97;67.88;98207.42;105320;1260;72653;-31
2023/09/24 04:55:09;;;;;;;4.60;3.20;;;;;;;22.98;67.76;98222.81;105362;1262;61436;-31
2023/09/24 04:57:37;;;;;;;4.50;3.40;;;;;;;22.98;67.85;98232.79;105276;1260;61263;-31
2023/09/24 05:00:05;;;;;;;3.40;3.10;;;;;;;22.98;67.87;98239.42;105285;1260;74774;-31
2023/09/24 05:02:32;;;;;;;4.80;3.40;;;;;;;22.98;67.85;98246.13;105378;1262;65272;-33
2023/09/24 05:05:00;;;;;;;4.00;2.90;;;;;;;22.98;67.88;98251.38;105065;1260;72611;-31
2023/09/24 05:07:27;;;;;;;3.80;3.10;;;;;;;22.98;67.77;98249.96;105186;1262;61247;-31
2023/09/24 05:09:55;;;;;;;5.00;3.50;;;;;;;22.97;67.96;98251.98;105130;1260;61257;-31
2023/09/24 05:12:23;;;;;;;5.80;3.40;;;;;;;22.97;67.76;98252.05;105122;1260;74636;-31
2023/09/24 05:14:50;;;;;;;4.00;2.90;;;;;;;22.97;67.89;98251.03;105228;1262;66206;-31
2023/09/24 05:17:18;;;;;;;4.00;3.00;;;;;;;22.98;67.95;98242.86;105168;1260;72673;-31
2023/09/24 05:19:45;;;;;;;4.20;3.10;;;;;;;22.98;67.74;98230.52;105426;1262;61356;-31
2023/09/24 05:22:12;;;;;;;4.10;3.10;;;;;;;22.98;67.78;98232.79;105201;1262;61267;-31
2023/09/24 05:24:40;;;;;;;3.20;2.80;;;;;;;22.98;67.85;98235.62;105305;1262;74648;-31
2023/09/24 05:27:07;;;;;;;4.10;3.10;;;;;;;22.98;67.69;98231.79;105280;1262;66497;-31
2023/09/24 05:29:35;;;;;;;4.60;2.80;;;;;;;22.98;67.75;98233.98;105123;1261;73530;-31
2023/09/24 05:32:02;;;;;;;6.20;3.20;;;;;;;22.98;67.94;98235.61;105115;1258;61348;-33
2023/09/24 05:34:30;;;;;;;3.80;2.90;;;;;;;22.99;67.89;98243.48;105231;1260;61253;-33
2023/09/24 05:36:57;;;;;;;4.80;2.90;;;;;;;22.99;67.79;98238.44;105330;1262;74587;-31
2023/09/24 05:39:25;;;;;;;4.50;3.00;;;;;;;23.00;67.85;98228.53;105275;1262;67828;-31
2023/09/24 05:41:52;;;;;;;4.80;3.00;;;;;;;23.00;67.73;98224.71;105135;1260;72745;-33
2023/09/24 05:44:20;;;;;;;5.20;3.00;;;;;;;23.01;67.79;98222.62;105172;1262;61248;-33
2023/09/24 05:46:48;;;;;;;4.10;3.20;;;;;;;23.01;67.76;98222.23;105100;1260;61288;-31
2023/09/24 05:49:16;;;;;;;3.10;2.70;;;;;;;23.01;67.73;98223.31;105209;1261;75186;-31
2023/09/24 05:51:44;;;;;;;3.80;3.10;;;;;;;23.01;67.91;98222.69;105429;1262;66399;-31
2023/09/24 05:54:11;;;;;;;4.10;3.10;;;;;;;23.01;67.71;98223.71;105421;1262;73741;-31
2023/09/24 05:56:38;;;;;;;4.40;2.70;;;;;;;23.02;67.81;98219.11;105414;1262;61242;-31
2023/09/24 05:59:06;;;;;;;4.70;3.20;;;;;;;23.02;67.84;98221.86;105188;1259;61344;-32
2023/09/24 06:01:33;;;;;;;4.70;3.30;;;;;;;23.03;67.66;98219.60;105180;1262;74586;-31
2023/09/24 06:04:00;;;;;;;5.00;3.00;;;;;;;23.03;67.82;98221.16;105179;1263;66245;-32
2023/09/24 06:06:28;;;;;;;5.40;3.40;;;;;;;23.02;67.80;98231.45;105165;1260;72759;-31
2023/09/24 06:08:57;;;;;;;4.10;2.90;;;;;;;23.03;67.92;98242.00;105343;1263;61211;-31
2023/09/24 06:11:24;;;;;;;4.10;2.80;;;;;;;23.03;67.78;98253.48;105188;1262;61915;-32
2023/09/24 06:13:52;;;;;;;3.30;3.00;;;;;;;23.04;67.87;98259.51;105350;1260;74472;-33
2023/09/24 06:16:19;;;;;;;5.30;3.30;;;;;;;23.04;67.67;98252.89;105234;1262;65410;-31
2023/09/24 06:18:47;;;;;;;4.00;2.90;;;;;;;23.04;67.63;98254.84;105490;1263;72655;-33
2023/09/24 06:21:18;;;;;;;4.10;3.20;;;;;;;23.05;67.73;98267.02;105309;1262;61275;-31
2023/09/24 06:23:45;;;;;;;4.60;3.20;;;;;;;23.05;67.71;98268.18;105297;1261;61333;-32
2023/09/24 06:26:13;;;;;;;4.10;3.10;;;;;;;23.06;67.86;98258.83;105143;1260;61174;-31
2023/09/24 06:28:41;;;;;;;4.30;2.90;;;;;;;23.07;67.80;98261.42;105260;1262;66045;-31
2023/09/24 06:31:20;;;;;;;3.00;2.60;;;;;;;23.07;67.63;98265.49;105166;1260;73021;-31
2023/09/24 06:33:48;;;;;;;4.60;3.10;;;;;;;23.08;67.78;98273.39;105296;1263;61459;-32
2023/09/24 06:36:16;;;;;;;3.20;2.70;;;;;;;23.08;67.72;98278.15;105323;1262;61311;-32
2023/09/24 06:38:44;;;;;;;4.30;2.70;;;;;;;23.08;67.63;98280.25;105149;1262;74382;-32
2023/09/24 06:41:12;;;;;;;4.20;2.70;;;;;;;23.09;67.57;98287.69;105431;1262;65379;-31
2023/09/24 06:43:39;;;;;;;3.50;2.80;;;;;;;23.10;67.49;98282.08;105254;1260;72602;-32
2023/09/24 06:46:06;;;;;;;4.00;2.80;;;;;;;23.10;67.76;98279.27;105084;1265;61267;-32
2023/09/24 06:48:34;;;;;;;3.20;2.50;;;;;;;23.10;67.65;98278.73;105115;1262;61342;-32
2023/09/24 06:51:08;;;;;;;3.50;2.60;;;;;;;23.11;67.82;98292.31;105118;1263;74709;-33
2023/09/24 06:53:37;;;;;;;4.40;2.50;;;;;;;23.11;67.70;98304.65;105331;1262;64828;-32
2023/09/24 06:56:06;;;;;;;4.50;2.70;;;;;;;23.12;67.76;98309.04;105489;1260;72336;-32
2023/09/24 06:58:34;;;;;;;3.50;2.80;;;;;;;23.11;67.95;98306.06;105448;1262;61259;-32
2023/09/24 07:01:06;;;;;;;3.70;2.70;;;;;;;23.12;68.01;98302.10;105346;1260;61359;-32
2023/09/24 07:03:33;;;;;;;3.00;2.70;;;;;;;23.12;67.73;98302.65;104992;1259;74673;-33
2023/09/24 07:06:05;;;;;;;2.90;2.40;;;;;;;23.12;67.67;98303.91;105345;1265;66368;-32
2023/09/24 07:08:35;;;;;;;3.60;2.50;;;;;;;23.13;67.65;98304.85;105362;1264;72743;-31
2023/09/24 07:11:33;;;;;;;2.90;2.50;;;;;;;23.13;67.69;98308.29;105172;1265;61253;-32
2023/09/24 07:14:01;;;;;;;3.50;2.50;;;;;;;23.14;67.56;98315.49;105275;1258;61375;-32
2023/09/24 07:16:28;;;;;;;3.10;2.20;;;;;;;23.14;67.49;98325.02;105276;1271;74559;-31
2023/09/24 07:18:58;;;;;;;3.00;2.10;;;;;;;23.14;67.70;98329.08;105149;1262;66697;-33
2023/09/24 07:21:28;;;;;;;3.00;2.20;;;;;;;23.15;67.59;98339.95;104989;1267;73511;-34
2023/09/24 07:23:58;;;;;;;2.40;2.20;;;;;;;23.15;67.68;98348.44;105442;1260;61348;-34
2023/09/24 07:26:28;;;;;;;3.30;2.20;;;;;;;23.15;67.59;98349.69;105308;1262;61282;-34
2023/09/24 07:28:55;;;;;;;2.60;2.10;;;;;;;23.15;67.50;98349.39;105151;1263;74338;-35
2023/09/24 07:31:23;;;;;;;3.30;2.40;;;;;;;23.16;67.43;98356.18;105134;1260;65971;-35
2023/09/24 07:33:56;;;;;;;2.40;2.20;;;;;;;23.15;67.42;98360.62;105145;1262;70725;-34
2023/09/24 07:36:24;;;;;;;3.40;2.20;;;;;;;23.15;67.74;98365.55;105194;1258;61289;-35
2023/09/24 07:38:54;;;;;;;3.10;2.20;;;;;;;23.16;67.33;98373.66;105385;1260;61362;-34
2023/09/24 07:41:22;;;;;;;3.10;2.20;;;;;;;23.16;67.44;98383.98;105292;1262;75712;-33
2023/09/24 07:43:49;;;;;;;6.30;2.10;;;;;;;23.16;67.58;98390.53;105277;1260;65981;-34
2023/09/24 07:46:18;;;;;;;2.50;2.00;;;;;;;23.16;67.66;98389.13;105357;1261;72665;-33
2023/09/24 07:48:47;;;;;;;2.50;2.00;;;;;;;23.15;67.71;98386.30;105510;1263;61260;-34
2023/09/24 07:51:18;;;;;;;3.30;2.10;;;;;;;23.15;67.65;98374.59;105165;1258;59662;-32
2023/09/24 07:53:46;;;;;;;2.10;1.90;;;;;;;23.15;67.70;98372.95;105159;1257;73270;-34
2023/09/24 07:56:14;;;;;;;2.10;1.70;;;;;;;23.15;67.53;98381.70;105143;1263;66269;-32
2023/09/24 07:58:42;;;;;;;2.40;1.80;;;;;;;23.15;67.82;98390.13;105167;1262;72444;-34
2023/09/24 08:01:10;;;;;;;3.00;2.00;;;;;;;23.15;67.74;98387.86;105203;1264;61196;-32
2023/09/24 08:03:38;;;;;;;2.80;1.90;;;;;;;23.16;67.69;98391.70;105370;1262;61239;-34
2023/09/24 08:06:06;;;;;;;2.20;1.70;;;;;;;23.16;67.47;98404.27;105552;1263;74401;-33
2023/09/24 08:08:34;;;;;;;5.70;1.80;;;;;;;23.16;67.54;98409.18;105554;1262;66662;-37
2023/09/24 08:11:19;;;;;;;3.50;1.90;;;;;;;23.15;67.59;98409.72;105274;1262;72643;-35
2023/09/24 08:13:47;;;;;;;2.40;1.80;;;;;;;23.14;67.59;98411.29;105366;1262;61263;-33
2023/09/24 08:16:19;;;;;;;2.70;1.60;;;;;;;23.14;67.64;98418.36;105273;1262;61277;-34
2023/09/24 08:18:49;;;;;;;2.20;1.50;;;;;;;23.13;67.62;98415.78;105245;1262;74461;-34
2023/09/24 08:21:19;;;;;;;2.40;1.50;;;;;;;23.13;67.64;98418.27;105221;1263;66344;-32
2023/09/24 08:23:46;;;;;;;1.60;1.40;;;;;;;23.13;67.90;98418.11;105255;1264;72691;-33
2023/09/24 08:26:15;;;;;;;2.80;1.60;;;;;;;23.13;67.94;98414.52;105139;1266;62071;-33
2023/09/24 08:28:43;;;;;;;2.70;1.50;;;;;;;23.13;67.96;98417.72;105196;1263;61381;-33
2023/09/24 08:31:11;;;;;;;1.80;1.30;;;;;;;23.12;67.53;98422.17;105189;1262;74674;-31
2023/09/24 08:33:38;;;;;;;3.70;1.40;;;;;;;23.12;67.73;98418.11;105219;1262;65151;-32
2023/09/24 08:36:09;;;;;;;2.90;1.60;;;;;;;23.13;67.78;98420.38;105213;1263;72709;-31
2023/09/24 08:38:37;;;;;;;2.00;1.60;;;;;;;23.13;67.78;98418.82;105186;1262;61308;-33
2023/09/24 08:41:14;;;;;;;3.30;1.30;;;;;;;23.13;67.75;98422.09;105187;1262;61317;-33
2023/09/24 08:43:42;;;;;;;1.40;1.30;;;;;;;23.12;67.96;98423.96;105177;1263;74642;-33
2023/09/24 08:46:10;;;;;;;1.90;1.20;;;;;;;23.12;67.77;98417.39;105196;1264;66037;-34
2023/09/24 08:48:42;;;;;;;3.00;1.40;;;;;;;23.12;67.77;98412.63;105036;1263;72423;-33
2023/09/24 08:51:10;;;;;;;2.80;1.10;;;;;;;23.11;67.66;98416.91;105174;1271;61350;-33
2023/09/24 08:53:39;;;;;;;2.60;1.30;;;;;;;23.12;67.61;98425.13;105151;1263;61340;-34
2023/09/24 08:56:07;;;;;;;1.40;1.00;;;;;;;23.12;67.63;98421.05;105136;1262;74672;-33
2023/09/24 08:58:38;;;;;;;1.50;1.20;;;;;;;23.11;67.63;98418.55;105215;1262;66163;-34
2023/09/24 09:01:09;;;;;;;1.70;1.10;;;;;;;23.11;67.76;98423.70;105027;1262;172800;-33
2023/09/24 09:03:36;;;;;;;3.30;1.50;;;;;;;23.11;67.68;98425.41;105156;1261;61304;-34
2023/09/24 09:06:04;;;;;;;2.30;1.20;;;;;;;23.11;67.67;98426.44;105204;1262;61186;-30
2023/09/24 09:08:53;;;;;;;2.60;1.40;;;;;;;23.11;67.83;98425.95;105215;1271;74734;-35
2023/09/24 09:11:45;;;;;;;3.90;1.30;;;;;;;23.11;67.81;98423.30;105078;1265;65114;-32
2023/09/24 09:14:13;;;;;;;1.60;1.00;;;;;;;23.11;67.87;98423.23;105025;1263;72973;-33
2023/09/24 09:16:57;;;;;;;1.40;1.00;;;;;;;23.10;67.88;98425.64;105235;1263;61344;-34
2023/09/24 09:19:52;;;;;;;1.70;1.10;;;;;;;23.11;67.93;98426.18;105166;1262;61420;-34
2023/09/24 09:22:29;;;;;;;3.30;1.00;;;;;;;23.10;67.86;98426.40;105052;1257;72726;-33
2023/09/24 09:25:04;;;;;;;2.40;1.10;;;;;;;23.10;67.74;98424.23;105641;1260;65116;-33
2023/09/24 09:27:33;;;;;;;3.20;1.10;;;;;;;23.10;67.79;98423.45;105100;1263;72770;-34
2023/09/24 09:30:18;;;;;;;2.70;1.20;;;;;;;23.11;67.94;98435.63;105242;1263;61218;-33
2023/09/24 09:32:47;;;;;;;2.50;1.00;;;;;;;23.10;67.65;98443.20;105394;1271;61276;-33
2023/09/24 09:35:15;;;;;;;1.50;1.00;;;;;;;23.10;67.60;98446.23;105319;1261;73006;-34
2023/09/24 09:37:43;;;;;;;1.90;1.10;;;;;;;23.10;67.75;98447.64;105381;1261;66749;-33
2023/09/24 09:40:11;;;;;;;1.10;0.90;;;;;;;23.10;68.07;98454.20;105125;1261;72644;-32
2023/09/24 09:42:39;;;;;;;2.20;1.10;;;;;;;23.10;68.00;98453.81;105119;1262;61255;-32
2023/09/24 09:45:09;;;;;;;2.00;1.00;;;;;;;23.09;67.90;98453.95;105123;1260;61214;-32
2023/09/24 09:48:03;;;;;;;2.90;1.00;;;;;;;23.10;67.93;98450.14;105119;1266;74716;-32
2023/09/24 09:50:32;;;;;;;1.60;1.10;;;;;;;23.09;67.82;98443.05;105290;1270;65858;-34
2023/09/24 09:52:59;;;;;;;2.00;1.10;;;;;;;23.09;68.07;98440.53;105067;1259;72360;-33
2023/09/24 09:55:27;;;;;;;1.70;0.90;;;;;;;23.09;68.15;98439.20;107234;1259;61270;-31
2023/09/24 09:57:54;;;;;;;4.00;1.50;;;;;;;23.09;68.01;98440.22;105116;1261;61481;-30
2023/09/24 10:00:38;;;;;;;1.10;0.70;;;;;;;23.09;67.98;98445.60;105192;1264;74735;-30
2023/09/24 10:03:06;;;;;;;1.60;1.00;;;;;;;23.10;67.83;98445.38;105198;1271;65330;-30
2023/09/24 10:05:35;;;;;;;2.30;1.00;;;;;;;23.10;68.14;98446.78;105106;1261;73565;-33
2023/09/24 10:08:38;;;;;;;1.50;1.00;;;;;;;23.10;67.99;98442.34;105204;1264;61375;-32
2023/09/24 10:11:07;;;;;;;1.70;0.80;;;;;;;23.10;67.91;98442.33;105200;1258;61192;-32
2023/09/24 10:13:46;;;;;;;1.10;0.90;;;;;;;23.10;67.91;98446.64;105201;1258;73542;-31
2023/09/24 10:16:25;;;;;;;2.00;0.80;;;;;;;23.10;68.01;98453.27;105171;1264;64901;-32
2023/09/24 10:18:54;;;;;;;2.10;1.00;;;;;;;23.11;67.96;98452.95;105182;1260;73005;-30
2023/09/24 10:21:38;;;;;;;0.80;0.70;;;;;;;23.10;68.00;98457.09;105397;1262;61189;-31
2023/09/24 10:24:12;;;;;;;1.60;1.00;;;;;;;23.11;67.87;98463.34;105169;1263;61373;-32
2023/09/24 10:26:50;;;;;;;2.10;1.10;;;;;;;23.10;67.89;98471.22;105147;1263;74603;-33
2023/09/24 10:29:18;;;;;;;1.50;0.90;;;;;;;23.10;67.86;98471.67;105238;1261;66013;-33
2023/09/24 10:32:09;;;;;;;1.50;1.00;;;;;;;23.11;67.85;98472.55;105174;1263;72946;-33
2023/09/24 10:34:57;;;;;;;1.80;1.00;;;;;;;23.11;68.04;98467.40;105209;1271;61248;-31
2023/09/24 10:37:26;;;;;;;2.60;1.10;;;;;;;23.10;67.94;98463.02;105195;1261;61373;-31
2023/09/24 10:40:05;;;;;;;1.70;1.00;;;;;;;23.11;68.09;98463.43;105159;1263;74657;-31
2023/09/24 10:42:41;;;;;;;1.30;0.70;;;;;;;23.11;67.85;98454.92;105244;1261;66877;-31
2023/09/24 10:45:12;;;;;;;1.90;1.10;;;;;;;23.11;67.90;98455.77;105127;1261;73562;-32
2023/09/24 10:47:43;;;;;;;1.90;1.00;;;;;;;23.11;67.88;98456.39;105169;1263;61742;-32
2023/09/24 10:50:14;;;;;;;1.60;1.00;;;;;;;23.12;67.83;98461.66;105175;1263;61405;-33
2023/09/24 10:52:59;;;;;;;1.60;1.00;;;;;;;23.11;67.89;98465.77;105208;1263;74605;-32
2023/09/24 10:55:27;;;;;;;1.70;1.00;;;;;;;23.11;67.66;98473.35;105228;1259;65769;-32
2023/09/24 10:57:57;;;;;;;3.60;1.20;;;;;;;23.12;67.67;98481.96;105247;1260;72988;-32
2023/09/24 11:00:25;;;;;;;3.60;1.10;;;;;;;23.12;67.85;98487.59;105232;1264;61334;-31
2023/09/24 11:03:07;;;;;;;1.90;1.20;;;;;;;23.12;67.75;98493.28;105227;1261;62210;-31
2023/09/24 11:05:41;;;;;;;1.50;1.10;;;;;;;23.12;67.86;98498.13;105185;1258;74251;-34
2023/09/24 11:08:10;;;;;;;4.30;1.40;;;;;;;23.12;67.97;98503.27;105788;1263;66295;-34
2023/09/24 11:10:38;;;;;;;3.20;1.50;;;;;;;23.12;68.04;98505.69;104834;1259;73633;-32
2023/09/24 11:13:06;;;;;;;2.00;1.40;;;;;;;23.11;68.12;98507.23;105260;1264;61114;-33
2023/09/24 11:15:39;;;;;;;2.50;1.40;;;;;;;23.11;68.01;98507.47;105450;1263;61133;-32
2023/09/24 11:18:06;;;;;;;1.50;1.10;;;;;;;23.11;68.19;98506.14;105161;1263;74330;-32
2023/09/24 11:20:37;;;;;;;2.60;1.10;;;;;;;23.11;68.19;98511.13;107610;1261;66144;-31
2023/09/24 11:23:08;;;;;;;2.70;1.00;;;;;;;23.11;68.17;98514.56;105713;1263;73776;-32
2023/09/24 11:25:36;;;;;;;1.30;1.10;;;;;;;23.11;68.17;98518.16;105167;1258;61362;-31
2023/09/24 11:28:04;;;;;;;2.60;1.20;;;;;;;23.11;68.17;98513.61;105390;1259;61243;-30
2023/09/24 11:30:40;;;;;;;2.30;1.20;;;;;;;23.11;68.03;98519.88;105353;1258;75127;-31
2023/09/24 11:33:11;;;;;;;1.90;1.10;;;;;;;23.11;68.25;98525.09;105326;1262;65221;-32
2023/09/24 11:35:39;;;;;;;4.00;1.40;;;;;;;23.11;68.41;98529.39;105143;1264;72620;-32